createdAt,value
2019-04-06T00:00:37.574Z,9.60
2019-04-06T00:03:09.946Z,9.60
2019-04-06T00:05:42.319Z,9.50
2019-04-06T00:08:15.270Z,9.40
2019-04-06T00:10:47.741Z,9.30
2019-04-06T00:13:21.376Z,9.30
2019-04-06T00:15:54.260Z,9.20
2019-04-06T00:18:26.665Z,9.10
2019-04-06T00:20:59.624Z,9.00
2019-04-06T00:23:31.616Z,9.00
2019-04-06T00:26:04.471Z,8.80
2019-04-06T00:28:36.520Z,8.50
2019-04-06T00:31:33.071Z,8.40
2019-04-06T00:34:08.226Z,8.30
2019-04-06T00:36:42.182Z,8.10
2019-04-06T00:39:15.019Z,8.10
2019-04-06T00:41:48.401Z,8.10
2019-04-06T00:44:20.093Z,8.10
2019-04-06T00:46:53.312Z,8.00
2019-04-06T00:49:28.877Z,8.00
2019-04-06T00:52:01.637Z,7.80
2019-04-06T00:54:33.673Z,7.70
2019-04-06T00:57:06.921Z,7.70
2019-04-06T00:59:40.452Z,7.60
2019-04-06T01:02:11.974Z,7.60
2019-04-06T01:04:49.127Z,7.70
2019-04-06T01:07:23.256Z,7.70
2019-04-06T01:10:13.827Z,7.80
2019-04-06T01:12:45.855Z,7.80
2019-04-06T01:15:19.076Z,7.80
2019-04-06T01:17:52.693Z,7.90
2019-04-06T01:20:25.852Z,8.00
2019-04-06T01:22:57.905Z,8.10
2019-04-06T01:25:40.705Z,8.20
2019-04-06T01:28:12.680Z,8.10
2019-04-06T01:30:45.065Z,8.10
2019-04-06T01:33:17.576Z,8.30
2019-04-06T01:35:49.544Z,8.40
2019-04-06T01:38:21.580Z,8.40
2019-04-06T01:40:54.545Z,8.30
2019-04-06T01:43:45.265Z,8.20
2019-04-06T01:46:17.770Z,8.10
2019-04-06T01:48:49.920Z,8.20
2019-04-06T01:51:21.617Z,8.20
2019-04-06T01:53:55.698Z,8.30
2019-04-06T01:56:28.253Z,8.20
2019-04-06T01:58:59.760Z,8.10
2019-04-06T02:01:45.149Z,8.10
2019-04-06T02:04:18.645Z,8.00
2019-04-06T02:06:51.139Z,8.00
2019-04-06T02:09:23.002Z,8.00
2019-04-06T02:11:54.603Z,8.10
2019-04-06T02:14:26.225Z,8.10
2019-04-06T02:16:58.271Z,8.20
2019-04-06T02:19:30.512Z,8.20
2019-04-06T02:22:03.020Z,8.30
2019-04-06T02:24:35.696Z,8.30
2019-04-06T02:27:07.699Z,8.20
2019-04-06T02:29:39.199Z,8.30
2019-04-06T02:32:29.105Z,8.30
2019-04-06T02:35:19.312Z,8.30
2019-04-06T02:38:16.172Z,8.30
2019-04-06T02:41:05.129Z,8.20
2019-04-06T02:43:38.365Z,8.00
2019-04-06T02:46:10.766Z,8.10
2019-04-06T02:48:43.329Z,8.10
2019-04-06T02:51:15.228Z,7.80
2019-04-06T02:53:47.187Z,7.80
2019-04-06T02:56:19.747Z,7.70
2019-04-06T02:58:51.811Z,7.70
2019-04-06T03:01:24.587Z,7.70
2019-04-06T03:03:57.611Z,7.70
2019-04-06T03:06:29.286Z,7.80
2019-04-06T03:09:01.509Z,7.70
2019-04-06T03:11:53.739Z,7.70
2019-04-06T03:14:25.926Z,7.80
2019-04-06T03:16:58.179Z,7.80
2019-04-06T03:19:29.913Z,7.80
2019-04-06T03:22:01.434Z,7.80
2019-04-06T03:24:33.911Z,7.90
2019-04-06T03:27:05.905Z,7.80
2019-04-06T03:29:37.951Z,7.50
2019-04-06T03:32:09.992Z,7.40
2019-04-06T03:34:43.396Z,7.40
2019-04-06T03:37:16.159Z,7.40
2019-04-06T03:39:48.577Z,7.30
2019-04-06T03:42:21.733Z,7.30
2019-04-06T03:44:56.069Z,7.40
2019-04-06T03:47:28.008Z,7.30
2019-04-06T03:50:10.745Z,7.30
2019-04-06T03:52:42.836Z,7.30
2019-04-06T03:55:14.913Z,7.40
2019-04-06T03:57:46.855Z,7.40
2019-04-06T04:00:18.648Z,7.50
2019-04-06T04:02:50.157Z,7.60
2019-04-06T04:05:22.935Z,7.60
2019-04-06T04:07:55.760Z,7.60
2019-04-06T04:10:39.646Z,7.50
2019-04-06T04:13:13.197Z,7.60
2019-04-06T04:15:46.436Z,7.60
2019-04-06T04:18:19.467Z,7.50
2019-04-06T04:20:51.052Z,7.50
2019-04-06T04:23:23.196Z,7.60
2019-04-06T04:25:56.244Z,7.70
2019-04-06T04:28:28.345Z,7.90
2019-04-06T04:31:02.130Z,8.20
2019-04-06T04:33:35.248Z,8.40
2019-04-06T04:36:07.282Z,8.60
2019-04-06T04:38:40.553Z,8.70
2019-04-06T04:41:13.087Z,8.70
2019-04-06T04:43:45.330Z,8.90
2019-04-06T04:46:17.718Z,9.00
2019-04-06T04:48:50.219Z,9.30
2019-04-06T04:51:23.147Z,9.50
2019-04-06T04:53:56.116Z,9.90
2019-04-06T04:56:28.076Z,9.80
2019-04-06T04:59:01.228Z,10.20
2019-04-06T05:01:34.437Z,10.70
2019-04-06T05:04:06.803Z,11.00
2019-04-06T05:06:40.275Z,11.00
2019-04-06T05:09:12.649Z,11.40
2019-04-06T05:11:45.766Z,11.50
2019-04-06T05:14:53.154Z,11.20
2019-04-06T05:17:26.152Z,11.10
2019-04-06T05:19:59.063Z,11.50
2019-04-06T05:22:31.512Z,12.30
2019-04-06T05:25:04.713Z,12.40
2019-04-06T05:27:38.093Z,12.60
2019-04-06T05:30:12.742Z,12.50
2019-04-06T05:32:47.201Z,13.30
2019-04-06T05:35:19.291Z,13.30
2019-04-06T05:37:51.646Z,13.10
2019-04-06T05:40:25.300Z,13.20
2019-04-06T05:42:57.795Z,12.70
2019-04-06T05:45:42.348Z,12.60
2019-04-06T05:48:14.924Z,12.70
2019-04-06T05:50:47.211Z,12.40
2019-04-06T05:53:21.186Z,12.70
2019-04-06T05:55:54.533Z,12.50
2019-04-06T05:58:28.240Z,12.70
2019-04-06T06:01:00.242Z,13.40
2019-04-06T06:03:32.203Z,13.60
2019-04-06T06:06:04.705Z,13.20
2019-04-06T06:08:38.623Z,14.00
2019-04-06T06:11:11.200Z,14.90
2019-04-06T06:13:44.065Z,15.20
2019-04-06T06:16:16.275Z,13.80
2019-04-06T06:18:48.853Z,14.90
2019-04-06T06:21:23.024Z,14.90
2019-04-06T06:23:55.301Z,15.70
2019-04-06T06:26:29.025Z,15.60
2019-04-06T06:29:02.437Z,15.80
2019-04-06T06:31:36.218Z,16.20
2019-04-06T06:34:11.581Z,15.90
2019-04-06T06:36:44.603Z,16.40
2019-04-06T06:39:17.596Z,16.60
2019-04-06T06:41:51.593Z,17.30
2019-04-06T06:44:25.028Z,17.60
2019-04-06T06:46:58.111Z,17.00
2019-04-06T06:49:31.057Z,16.90
2019-04-06T06:52:03.981Z,16.60
2019-04-06T06:54:36.839Z,17.20
2019-04-06T06:57:10.009Z,18.00
2019-04-06T06:59:42.259Z,17.90
2019-04-06T07:02:14.849Z,17.30
2019-04-06T07:04:50.345Z,17.70
2019-04-06T07:07:24.267Z,18.00
2019-04-06T07:10:05.069Z,18.00
2019-04-06T07:12:34.245Z,17.50
2019-04-06T07:15:07.608Z,17.40
2019-04-06T07:17:40.008Z,17.20
2019-04-06T07:20:13.552Z,17.10
2019-04-06T07:22:45.747Z,17.30
2019-04-06T07:25:18.195Z,17.10
2019-04-06T07:27:50.600Z,17.10
2019-04-06T07:30:25.755Z,17.20
2019-04-06T07:32:58.603Z,17.30
2019-04-06T07:35:32.740Z,17.50
2019-04-06T07:38:06.340Z,17.40
2019-04-06T07:40:38.912Z,16.70
2019-04-06T07:43:12.004Z,16.70
2019-04-06T07:45:46.794Z,17.00
2019-04-06T07:48:20.062Z,17.00
2019-04-06T07:50:53.892Z,17.30
2019-04-06T07:53:26.591Z,17.50
2019-04-06T07:55:59.849Z,17.20
2019-04-06T07:58:33.361Z,17.30
2019-04-06T08:01:06.906Z,17.40
2019-04-06T08:03:41.576Z,17.70
2019-04-06T08:06:15.621Z,17.80
2019-04-06T08:08:49.194Z,18.20
2019-04-06T08:11:22.405Z,18.40
2019-04-06T08:13:56.839Z,18.40
2019-04-06T08:16:30.428Z,18.50
2019-04-06T08:19:03.303Z,18.90
2019-04-06T08:21:37.397Z,18.90
2019-04-06T08:24:11.237Z,19.40
2019-04-06T08:26:46.638Z,19.40
2019-04-06T08:29:23.574Z,19.60
2019-04-06T08:31:56.953Z,19.80
2019-04-06T08:34:31.246Z,19.90
2019-04-06T08:37:05.981Z,20.40
2019-04-06T08:39:39.462Z,19.80
2019-04-06T08:42:13.684Z,19.80
2019-04-06T08:44:47.822Z,19.80
2019-04-06T08:47:21.008Z,19.80
2019-04-06T08:49:54.000Z,18.90
2019-04-06T08:52:27.881Z,18.90
2019-04-06T08:55:00.263Z,19.00
2019-04-06T08:57:43.736Z,18.80
2019-04-06T09:00:16.731Z,18.60
2019-04-06T09:02:49.795Z,18.20
2019-04-06T09:05:24.360Z,18.30
2019-04-06T09:07:57.500Z,18.30
2019-04-06T09:10:31.787Z,18.50
2019-04-06T09:13:05.457Z,18.50
2019-04-06T09:15:39.477Z,18.90
2019-04-06T09:18:11.986Z,18.80
2019-04-06T09:20:45.806Z,19.00
2019-04-06T09:23:19.469Z,19.20
2019-04-06T09:25:52.733Z,19.40
2019-04-06T09:28:25.616Z,20.10
2019-04-06T09:30:58.625Z,20.60
2019-04-06T09:33:32.432Z,20.50
2019-04-06T09:36:30.236Z,20.40
2019-04-06T09:39:05.894Z,20.40
2019-04-06T09:41:41.355Z,20.50
2019-04-06T09:44:48.145Z,20.20
2019-04-06T09:47:51.744Z,20.80
2019-04-06T09:51:04.400Z,20.20
2019-04-06T09:54:06.195Z,20.30
2019-04-06T09:56:54.027Z,19.90
2019-04-06T09:59:56.071Z,20.00
2019-04-06T10:02:50.079Z,19.70
2019-04-06T10:05:32.952Z,19.60
2019-04-06T10:08:27.784Z,19.60
2019-04-06T10:11:21.256Z,19.50
2019-04-06T10:14:24.625Z,19.50
2019-04-06T10:17:21.036Z,19.60
2019-04-06T10:20:11.595Z,19.50
2019-04-06T10:23:03.419Z,19.30
2019-04-06T10:25:53.700Z,18.90
2019-04-06T10:28:45.101Z,18.90
2019-04-06T10:31:38.631Z,18.80
2019-04-06T10:34:36.084Z,18.70
2019-04-06T10:37:25.883Z,19.00
2019-04-06T10:40:08.684Z,18.40
2019-04-06T10:43:12.433Z,18.50
2019-04-06T10:45:53.226Z,18.10
2019-04-06T10:48:43.175Z,17.50
2019-04-06T10:51:46.893Z,17.50
2019-04-06T10:54:48.248Z,17.50
2019-04-06T10:57:39.713Z,17.30
2019-04-06T11:00:40.890Z,17.30
2019-04-06T11:03:41.093Z,17.20
2019-04-06T11:06:29.573Z,17.00
2019-04-06T11:09:19.665Z,17.20
2019-04-06T11:12:20.075Z,17.00
2019-04-06T11:15:10.516Z,16.90
2019-04-06T11:18:06.122Z,16.90
2019-04-06T11:20:49.965Z,16.70
2019-04-06T11:23:41.158Z,16.80
2019-04-06T11:26:36.365Z,16.90
2019-04-06T11:29:27.353Z,17.00
2019-04-06T11:32:21.957Z,16.70
2019-04-06T11:35:20.389Z,16.60
2019-04-06T11:38:01.991Z,16.70
2019-04-06T11:40:45.738Z,16.60
2019-04-06T11:43:50.167Z,16.50
2019-04-06T11:46:27.654Z,16.60
2019-04-06T11:49:11.817Z,16.50
2019-04-06T11:51:58.981Z,16.70
2019-04-06T11:54:49.274Z,16.40
2019-04-06T11:57:41.725Z,16.30
2019-04-06T12:00:39.519Z,16.30
2019-04-06T12:03:30.603Z,15.90
2019-04-06T12:06:20.641Z,15.90
2019-04-06T12:09:22.598Z,15.90
2019-04-06T12:12:07.107Z,15.90
2019-04-06T12:14:52.321Z,16.00
2019-04-06T12:17:55.063Z,16.00
2019-04-06T12:21:01.611Z,16.00
2019-04-06T12:24:08.216Z,16.20
2019-04-06T12:27:18.494Z,15.90
2019-04-06T12:30:14.182Z,15.80
2019-04-06T12:33:09.457Z,15.70
2019-04-06T12:35:59.224Z,15.40
2019-04-06T12:38:52.228Z,15.40
2019-04-06T12:41:52.327Z,15.50
2019-04-06T12:44:44.203Z,15.30
2019-04-06T12:47:34.252Z,15.30
2019-04-06T12:50:27.356Z,15.50
2019-04-06T12:53:17.527Z,15.40
2019-04-06T12:56:09.270Z,15.50
2019-04-06T12:59:04.146Z,15.40
2019-04-06T13:01:58.004Z,15.40
2019-04-06T13:04:59.372Z,15.20
2019-04-06T13:07:44.654Z,15.20
2019-04-06T13:10:36.180Z,15.40
2019-04-06T13:13:26.736Z,15.70
2019-04-06T13:16:21.099Z,16.00
2019-04-06T13:19:08.445Z,16.10
2019-04-06T13:21:57.408Z,16.20
2019-04-06T13:24:38.142Z,16.00
2019-04-06T13:27:25.332Z,16.00
2019-04-06T13:30:22.528Z,16.00
2019-04-06T13:33:14.947Z,15.90
2019-04-06T13:36:05.430Z,15.70
2019-04-06T13:38:59.162Z,15.80
2019-04-06T13:41:58.587Z,15.80
2019-04-06T13:45:02.604Z,15.70
2019-04-06T13:47:43.407Z,15.80
2019-04-06T13:50:50.458Z,15.80
2019-04-06T13:53:36.851Z,15.70
2019-04-06T13:56:28.611Z,15.50
2019-04-06T13:59:18.643Z,15.60
2019-04-06T14:02:29.360Z,15.60
2019-04-06T14:05:23.006Z,15.40
2019-04-06T14:08:17.198Z,15.30
2019-04-06T14:11:20.017Z,15.30
2019-04-06T14:14:12.678Z,15.60
2019-04-06T14:17:13.662Z,15.60
2019-04-06T14:20:07.025Z,15.70
2019-04-06T14:22:58.093Z,15.50
2019-04-06T14:26:06.949Z,15.50
2019-04-06T14:28:57.253Z,15.40
2019-04-06T14:32:06.620Z,15.40
2019-04-06T14:35:04.548Z,15.40
2019-04-06T14:37:55.240Z,15.40
2019-04-06T14:40:46.315Z,15.30
2019-04-06T14:43:37.719Z,15.00
2019-04-06T14:46:23.268Z,15.00
2019-04-06T14:49:27.561Z,14.90
2019-04-06T14:52:06.824Z,14.80
2019-04-06T14:55:07.017Z,14.60
2019-04-06T14:58:01.489Z,14.60
2019-04-06T15:00:53.234Z,14.50
2019-04-06T15:03:42.864Z,14.30
2019-04-06T15:06:32.514Z,14.20
2019-04-06T15:09:14.809Z,14.10
2019-04-06T15:12:08.105Z,13.90
2019-04-06T15:15:05.314Z,13.80
2019-04-06T15:17:51.172Z,13.70
2019-04-06T15:20:48.449Z,13.60
2019-04-06T15:23:46.592Z,13.50
2019-04-06T15:26:46.617Z,13.60
2019-04-06T15:29:35.332Z,13.70
2019-04-06T15:32:26.774Z,13.60
2019-04-06T15:35:22.029Z,13.60
2019-04-06T15:38:04.293Z,13.60
2019-04-06T15:40:56.856Z,13.60
2019-04-06T15:43:48.195Z,13.60
2019-04-06T15:46:39.224Z,13.50
2019-04-06T15:49:39.629Z,13.40
2019-04-06T15:52:33.356Z,13.40
2019-04-06T15:55:27.761Z,13.40
2019-04-06T15:58:21.066Z,13.30
2019-04-06T16:01:22.688Z,13.30
2019-04-06T16:04:13.466Z,13.30
2019-04-06T16:07:10.290Z,13.20
2019-04-06T16:10:16.603Z,13.20
2019-04-06T16:13:08.945Z,13.20
2019-04-06T16:16:04.295Z,13.30
2019-04-06T16:21:53.758Z,13.30
2019-04-06T16:24:40.752Z,13.00
2019-04-06T16:27:39.954Z,13.00
2019-04-06T16:30:37.481Z,13.00
2019-04-06T16:33:34.537Z,12.90
2019-04-06T16:36:18.786Z,12.90
2019-04-06T16:39:02.757Z,12.90
2019-04-06T16:41:58.681Z,12.80
2019-04-06T16:45:06.259Z,12.90
2019-04-06T16:47:52.939Z,12.80
2019-04-06T16:50:39.081Z,12.70
2019-04-06T16:53:32.973Z,12.70
2019-04-06T16:56:21.000Z,12.80
2019-04-06T16:59:13.192Z,12.70
2019-04-06T17:02:03.284Z,12.80
2019-04-06T17:05:25.924Z,12.70
2019-04-06T17:08:27.488Z,12.70
2019-04-06T17:11:36.004Z,12.70
2019-04-06T17:14:26.261Z,12.60
2019-04-06T17:17:11.871Z,12.50
2019-04-06T17:20:02.455Z,12.50
2019-04-06T17:22:48.404Z,12.50
2019-04-06T17:25:51.935Z,12.50
2019-04-06T17:28:52.970Z,12.50
2019-04-06T17:31:49.296Z,12.40
2019-04-06T17:34:56.716Z,12.50
2019-04-06T17:37:49.934Z,12.50
2019-04-06T17:40:43.684Z,12.40
2019-04-06T17:43:52.984Z,12.40
2019-04-06T17:46:57.661Z,12.40
2019-04-06T17:50:02.241Z,12.30
2019-04-06T17:52:57.288Z,12.30
2019-04-06T17:55:52.294Z,12.20
2019-04-06T17:59:02.345Z,12.20
2019-04-06T18:01:59.844Z,12.20
2019-04-06T18:05:02.377Z,12.20
2019-04-06T18:07:56.899Z,12.20
2019-04-06T18:10:51.267Z,12.20
2019-04-06T18:13:41.260Z,12.20
2019-04-06T18:16:13.788Z,12.20
2019-04-06T18:18:49.874Z,12.20
2019-04-06T18:21:24.511Z,12.20
2019-04-06T18:23:58.666Z,12.10
2019-04-06T18:26:30.754Z,12.20
2019-04-06T18:29:05.098Z,12.20
2019-04-06T18:32:03.749Z,12.20
2019-04-06T18:34:36.627Z,12.10
2019-04-06T18:37:36.201Z,12.10
2019-04-06T18:40:22.637Z,12.10
2019-04-06T18:42:56.290Z,12.00
2019-04-06T18:45:38.958Z,12.00
2019-04-06T18:48:13.736Z,12.10
2019-04-06T18:50:46.794Z,12.00
2019-04-06T18:53:20.433Z,12.00
2019-04-06T18:55:53.805Z,11.90
2019-04-06T18:58:28.099Z,11.90
2019-04-06T19:01:02.268Z,11.90
2019-04-06T19:03:37.807Z,11.80
2019-04-06T19:06:10.574Z,11.80
2019-04-06T19:08:43.068Z,11.80
2019-04-06T19:11:16.413Z,11.80
2019-04-06T19:13:49.928Z,11.80
2019-04-06T19:16:22.843Z,11.70
2019-04-06T19:18:58.011Z,11.70
2019-04-06T19:21:31.457Z,11.60
2019-04-06T19:24:04.614Z,11.60
2019-04-06T19:26:37.856Z,11.60
2019-04-06T19:29:11.281Z,11.60
2019-04-06T19:31:46.023Z,11.60
2019-04-06T19:34:19.680Z,11.60
2019-04-06T19:36:53.173Z,11.60
2019-04-06T19:39:26.333Z,11.70
2019-04-06T19:42:00.086Z,11.70
2019-04-06T19:44:33.505Z,11.70
2019-04-06T19:47:06.473Z,11.60
2019-04-06T19:49:39.930Z,11.60
2019-04-06T19:52:13.956Z,11.60
2019-04-06T19:54:47.376Z,11.60
2019-04-06T19:57:21.412Z,11.70
2019-04-06T19:59:57.226Z,11.60
2019-04-06T20:02:29.684Z,11.60
2019-04-06T20:05:02.878Z,11.60
2019-04-06T20:07:36.695Z,11.70
2019-04-06T20:10:12.817Z,11.60
2019-04-06T20:12:46.990Z,11.60
2019-04-06T20:15:20.238Z,11.50
2019-04-06T20:17:55.193Z,11.40
2019-04-06T20:20:28.033Z,11.60
2019-04-06T20:23:01.739Z,11.60
2019-04-06T20:25:36.453Z,11.60
2019-04-06T20:28:10.120Z,11.70
2019-04-06T20:30:44.144Z,11.70
2019-04-06T20:33:19.001Z,11.60
2019-04-06T20:36:02.466Z,11.40
2019-04-06T20:38:37.266Z,11.30
2019-04-06T20:41:12.060Z,11.10
2019-04-06T20:43:45.320Z,11.10
2019-04-06T20:46:20.481Z,11.00
2019-04-06T20:48:54.472Z,10.90
2019-04-06T20:51:30.105Z,10.80
2019-04-06T20:54:04.306Z,10.80
2019-04-06T20:56:37.131Z,10.60
2019-04-06T20:59:13.121Z,10.60
2019-04-06T21:01:45.163Z,10.60
2019-04-06T21:04:18.301Z,10.70
2019-04-06T21:06:51.641Z,10.70
2019-04-06T21:09:26.777Z,10.60
2019-04-06T21:12:02.456Z,10.60
2019-04-06T21:14:36.217Z,10.70
2019-04-06T21:17:09.291Z,10.70
2019-04-06T21:19:43.657Z,10.60
2019-04-06T21:22:17.253Z,10.70
2019-04-06T21:24:50.825Z,10.70
2019-04-06T21:27:24.893Z,10.70
2019-04-06T21:29:57.413Z,10.80
2019-04-06T21:32:31.057Z,10.80
2019-04-06T21:35:05.425Z,10.80
2019-04-06T21:37:38.572Z,11.00
2019-04-06T21:40:11.936Z,11.10
2019-04-06T21:42:45.994Z,11.10
2019-04-06T21:45:25.122Z,11.00
2019-04-06T21:47:59.461Z,11.00
2019-04-06T21:50:34.178Z,10.90
2019-04-06T21:53:25.401Z,10.90
2019-04-06T21:56:03.932Z,10.80
2019-04-06T21:58:34.531Z,10.80
2019-04-06T22:01:09.059Z,10.80
2019-04-06T22:03:41.823Z,10.80
2019-04-06T22:06:14.326Z,10.80
2019-04-06T22:08:47.235Z,11.00
2019-04-06T22:11:20.339Z,11.10
2019-04-06T22:13:57.861Z,11.00
2019-04-06T22:16:32.509Z,10.90
2019-04-06T22:19:05.963Z,11.10
2019-04-06T22:21:39.721Z,11.30
2019-04-06T22:24:12.200Z,11.30
2019-04-06T22:26:46.017Z,11.20
2019-04-06T22:29:20.636Z,11.10
2019-04-06T22:31:53.803Z,10.90
2019-04-06T22:34:36.427Z,10.90
2019-04-06T22:37:00.886Z,10.90
2019-04-06T22:39:34.414Z,10.80
2019-04-06T22:42:06.812Z,10.80
2019-04-06T22:44:40.275Z,10.80
2019-04-06T22:47:14.122Z,10.80
2019-04-06T22:49:46.648Z,10.70
2019-04-06T22:52:20.547Z,10.70
2019-04-06T22:54:54.265Z,10.80
2019-04-06T22:57:26.732Z,10.80
2019-04-06T22:59:59.696Z,10.80
2019-04-06T23:02:41.217Z,10.90
2019-04-06T23:05:38.679Z,10.90
2019-04-06T23:08:13.541Z,11.00
2019-04-06T23:10:46.807Z,11.10
2019-04-06T23:13:21.461Z,11.40
2019-04-06T23:15:54.234Z,11.30
2019-04-06T23:18:28.513Z,11.20
2019-04-06T23:21:02.969Z,11.20
2019-04-06T23:23:37.165Z,11.10
2019-04-06T23:26:28.673Z,11.10
2019-04-06T23:29:03.510Z,11.10
2019-04-06T23:31:37.098Z,11.10
2019-04-06T23:34:11.694Z,11.10
2019-04-06T23:36:45.262Z,11.20
2019-04-06T23:39:20.295Z,11.20
2019-04-06T23:41:54.088Z,11.20
2019-04-06T23:44:27.612Z,11.20
2019-04-06T23:46:59.782Z,11.30
2019-04-06T23:49:34.109Z,11.30
2019-04-06T23:52:07.042Z,11.30
2019-04-06T23:54:42.020Z,11.30
2019-04-06T23:57:15.147Z,11.30
2019-04-06T23:59:47.788Z,11.40
